Time;durP1;ratioP1;P1;durP2;ratioP2;P2;SDS_P1;SDS_P2;PMS_P1;PMS_P2;Temp;Humidity;BMP_temperature;BMP_pressure;BME280_temperature;BME280_humidity;BME280_pressure;Samples;Min_cycle;Max_cycle;Signal;HPM_P1;HPM_P2
2022/04/03 00:02:03;;;;;;;;;;;0.40;99.90;;;;;;5113933;28;20061;-44
2022/04/03 00:04:29;;;;;;;;;;;0.40;99.90;;;;;;5114113;28;19919;-43
2022/04/03 00:06:54;;;;;;;;;;;0.40;99.90;;;;;;5114152;28;19908;-43
2022/04/03 00:09:20;;;;;;;;;;;0.40;99.90;;;;;;5114226;28;19916;-43
2022/04/03 00:11:46;;;;;;;;;;;0.40;99.90;;;;;;5113998;28;19911;-43
2022/04/03 00:14:11;;;;;;;;;;;0.40;99.90;;;;;;5112949;28;19912;-43
2022/04/03 00:16:37;;;;;;;;;;;0.40;99.90;;;;;;5113843;28;20380;-44
2022/04/03 00:19:03;;;;;;;;;;;0.30;99.90;;;;;;5113975;28;19907;-43
2022/04/03 00:21:28;;;;;;;;;;;0.30;99.90;;;;;;5112744;28;19915;-43
2022/04/03 00:23:54;;;;;;;;;;;0.30;99.90;;;;;;5114034;28;20378;-42
2022/04/03 00:26:19;;;;;;;;;;;0.40;99.90;;;;;;5114137;28;19911;-43
2022/04/03 00:28:45;;;;;;;;;;;0.20;99.90;;;;;;5114192;28;19957;-43
2022/04/03 00:31:11;;;;;;;;;;;0.20;99.90;;;;;;5113756;28;19931;-43
2022/04/03 00:33:37;;;;;;;;;;;0.30;99.90;;;;;;5113925;28;19962;-42
2022/04/03 00:36:02;;;;;;;;;;;0.10;99.90;;;;;;5113735;28;19907;-42
2022/04/03 00:38:28;;;;;;;;;;;0.10;99.90;;;;;;5112763;28;20007;-43
2022/04/03 00:40:53;;;;;;;;;;;0.10;99.90;;;;;;5114007;28;19908;-43
2022/04/03 00:43:19;;;;;;;;;;;0.10;99.90;;;;;;5113701;28;19914;-42
2022/04/03 00:45:46;;;;;;;;;;;0.20;99.90;;;;;;5113784;28;19912;-43
2022/04/03 00:48:12;;;;;;;;;;;0.20;99.90;;;;;;5114260;28;19938;-43
2022/04/03 00:50:37;;;;;;;;;;;0.20;99.90;;;;;;5112697;28;19930;-43
2022/04/03 00:53:03;;;;;;;;;;;0.20;99.90;;;;;;5113548;28;20362;-43
2022/04/03 00:55:29;;;;;;;;;;;0.20;99.90;;;;;;5113891;28;19936;-42
2022/04/03 00:57:56;;;;;;;;;;;0.30;99.90;;;;;;5113425;28;20362;-43
2022/04/03 01:00:21;;;;;;;;;;;0.20;99.90;;;;;;5114186;28;19912;-42
2022/04/03 01:02:46;;;;;;;;;;;0.20;99.90;;;;;;5113462;28;20015;-43
2022/04/03 01:05:12;;;;;;;;;;;0.30;99.90;;;;;;5112620;28;19992;-43
2022/04/03 01:07:38;;;;;;;;;;;0.30;99.90;;;;;;5113462;28;19908;-43
2022/04/03 01:10:03;;;;;;;;;;;0.40;99.90;;;;;;5113584;28;19908;-44
2022/04/03 01:12:29;;;;;;;;;;;0.20;99.90;;;;;;5117374;28;19908;-43
2022/04/03 01:14:54;;;;;;;;;;;0.30;99.90;;;;;;5116088;28;19914;-43
2022/04/03 01:17:20;;;;;;;;;;;0.30;99.90;;;;;;5117227;28;19950;-43
2022/04/03 01:19:45;;;;;;;;;;;0.20;99.90;;;;;;5117256;28;19908;-43
2022/04/03 01:22:12;;;;;;;;;;;0.30;99.90;;;;;;5117057;28;19907;-43
2022/04/03 01:24:41;;;;;;;;;;;0.30;99.90;;;;;;5116894;28;20360;-42
2022/04/03 01:27:07;;;;;;;;;;;0.20;99.90;;;;;;5116775;28;19915;-42
2022/04/03 01:29:33;;;;;;;;;;;0.20;99.90;;;;;;5116980;28;19908;-42
2022/04/03 01:31:58;;;;;;;;;;;0.20;99.90;;;;;;5116999;28;19927;-43
2022/04/03 01:34:24;;;;;;;;;;;0.30;99.90;;;;;;5117299;28;20401;-42
2022/04/03 01:36:49;;;;;;;;;;;0.20;99.90;;;;;;5116874;28;19915;-42
2022/04/03 01:39:14;;;;;;;;;;;0.30;99.90;;;;;;5116886;28;19995;-42
2022/04/03 01:41:44;;;;;;;;;;;0.20;99.90;;;;;;5115573;28;19999;-44
2022/04/03 01:44:10;;;;;;;;;;;0.20;99.90;;;;;;5116635;28;19955;-43
2022/04/03 01:46:36;;;;;;;;;;;0.20;99.90;;;;;;5116360;28;19912;-44
2022/04/03 01:49:02;;;;;;;;;;;0.20;99.90;;;;;;5115328;28;19952;-43
2022/04/03 01:51:28;;;;;;;;;;;0.10;99.90;;;;;;5116624;28;19912;-42
2022/04/03 01:53:53;;;;;;;;;;;0.10;99.90;;;;;;5116415;28;19909;-42
2022/04/03 01:56:19;;;;;;;;;;;0.00;99.90;;;;;;5116739;28;19908;-43
2022/04/03 01:58:44;;;;;;;;;;;0.10;99.90;;;;;;5116360;28;19908;-45
2022/04/03 02:01:10;;;;;;;;;;;0.10;99.90;;;;;;5115995;28;19920;-43
2022/04/03 02:03:35;;;;;;;;;;;0.10;99.90;;;;;;5116547;28;19957;-42
2022/04/03 02:06:01;;;;;;;;;;;0.20;99.90;;;;;;5115926;28;19946;-42
2022/04/03 02:08:27;;;;;;;;;;;0.20;99.90;;;;;;5115780;28;19969;-42
2022/04/03 02:10:53;;;;;;;;;;;0.20;99.90;;;;;;5115879;28;19908;-42
2022/04/03 02:13:18;;;;;;;;;;;0.20;99.90;;;;;;5115739;28;20416;-42
2022/04/03 02:15:44;;;;;;;;;;;0.20;99.90;;;;;;5115767;28;20385;-42
2022/04/03 02:18:10;;;;;;;;;;;0.10;99.90;;;;;;5114675;28;19912;-44
2022/04/03 02:20:36;;;;;;;;;;;0.00;99.90;;;;;;5116238;28;19976;-43
2022/04/03 02:23:03;;;;;;;;;;;0.00;99.90;;;;;;5115063;28;19915;-43
2022/04/03 02:25:29;;;;;;;;;;;0.00;99.90;;;;;;5115579;28;19912;-43
2022/04/03 02:27:56;;;;;;;;;;;-0.10;99.90;;;;;;5115543;28;20004;-42
2022/04/03 02:30:21;;;;;;;;;;;0.00;99.90;;;;;;5115459;28;20363;-43
2022/04/03 02:32:47;;;;;;;;;;;0.00;99.90;;;;;;5114221;28;19945;-43
2022/04/03 02:35:13;;;;;;;;;;;0.00;99.90;;;;;;5114335;28;20369;-42
2022/04/03 02:37:39;;;;;;;;;;;-0.10;99.90;;;;;;5115286;28;19908;-43
2022/04/03 02:40:06;;;;;;;;;;;-0.10;99.90;;;;;;5115562;28;19908;-43
2022/04/03 02:42:32;;;;;;;;;;;-0.10;99.90;;;;;;5115130;28;20010;-43
2022/04/03 02:44:57;;;;;;;;;;;0.00;99.90;;;;;;5115140;28;20053;-43
2022/04/03 02:47:23;;;;;;;;;;;-0.10;99.90;;;;;;5115315;28;19908;-43
2022/04/03 02:49:52;;;;;;;;;;;-0.10;99.90;;;;;;5115207;28;20320;-43
2022/04/03 02:52:18;;;;;;;;;;;-0.10;99.90;;;;;;5115230;28;19907;-43
2022/04/03 02:54:45;;;;;;;;;;;-0.10;99.90;;;;;;5115350;28;19912;-42
2022/04/03 02:57:11;;;;;;;;;;;-0.20;99.90;;;;;;5115358;28;19913;-42
2022/04/03 02:59:36;;;;;;;;;;;-0.20;99.90;;;;;;5115341;28;19934;-42
2022/04/03 03:02:02;;;;;;;;;;;-0.30;99.90;;;;;;5115016;28;19944;-42
2022/04/03 03:04:27;;;;;;;;;;;-0.20;99.90;;;;;;5114895;28;19916;-42
2022/04/03 03:06:53;;;;;;;;;;;-0.20;99.90;;;;;;5115092;28;20003;-42
2022/04/03 03:09:19;;;;;;;;;;;-0.20;99.90;;;;;;5115033;28;20415;-44
2022/04/03 03:11:44;;;;;;;;;;;-0.30;99.90;;;;;;5115028;28;20348;-43
2022/04/03 03:14:10;;;;;;;;;;;-0.30;99.90;;;;;;5115025;28;20397;-43
2022/04/03 03:16:35;;;;;;;;;;;-0.30;99.90;;;;;;5114905;28;20365;-44
2022/04/03 03:19:01;;;;;;;;;;;-0.30;99.90;;;;;;5114605;28;19994;-43
2022/04/03 03:21:26;;;;;;;;;;;-0.20;99.90;;;;;;5114576;28;20423;-41
2022/04/03 03:23:52;;;;;;;;;;;-0.20;99.90;;;;;;5114485;28;20436;-42
2022/04/03 03:26:20;;;;;;;;;;;-0.30;99.90;;;;;;5114824;28;19912;-42
2022/04/03 03:28:46;;;;;;;;;;;-0.30;99.90;;;;;;5114823;28;19965;-42
2022/04/03 03:31:11;;;;;;;;;;;-0.30;99.90;;;;;;5114483;28;19923;-42
2022/04/03 03:33:37;;;;;;;;;;;-0.30;99.90;;;;;;5113900;28;20038;-42
2022/04/03 03:36:03;;;;;;;;;;;-0.30;99.90;;;;;;5114619;28;19914;-41
2022/04/03 03:38:28;;;;;;;;;;;-0.20;99.90;;;;;;5113755;28;19957;-42
2022/04/03 03:40:54;;;;;;;;;;;-0.20;99.90;;;;;;5114673;28;19908;-42
2022/04/03 03:43:20;;;;;;;;;;;-0.20;99.90;;;;;;5114225;28;19957;-42
2022/04/03 03:45:45;;;;;;;;;;;-0.20;99.90;;;;;;5114615;28;19928;-43
2022/04/03 03:48:11;;;;;;;;;;;-0.20;99.90;;;;;;5114516;28;20002;-42
2022/04/03 03:50:36;;;;;;;;;;;-0.30;99.90;;;;;;5114174;28;19908;-42
2022/04/03 03:53:02;;;;;;;;;;;-0.30;99.90;;;;;;5114520;28;19915;-43
2022/04/03 03:55:27;;;;;;;;;;;-0.30;99.90;;;;;;5114129;28;19908;-43
2022/04/03 03:57:53;;;;;;;;;;;-0.10;99.90;;;;;;5114042;28;19950;-43
2022/04/03 04:00:19;;;;;;;;;;;-0.10;99.90;;;;;;5114375;28;19908;-42
2022/04/03 04:02:44;;;;;;;;;;;-0.10;99.90;;;;;;5114314;28;19919;-43
2022/04/03 04:05:10;;;;;;;;;;;-0.20;99.90;;;;;;5114346;28;19995;-43
2022/04/03 04:07:42;;;;;;;;;;;-0.30;99.90;;;;;;5113903;28;19914;-42
2022/04/03 04:10:08;;;;;;;;;;;-0.40;99.90;;;;;;5114256;28;20014;-43
2022/04/03 04:12:34;;;;;;;;;;;-0.30;99.90;;;;;;5113844;28;19979;-45
2022/04/03 04:14:59;;;;;;;;;;;-0.20;99.90;;;;;;5113817;28;19915;-43
2022/04/03 04:17:25;;;;;;;;;;;-0.10;99.90;;;;;;5114617;28;20358;-42
2022/04/03 04:19:50;;;;;;;;;;;-0.20;99.90;;;;;;5113964;28;19958;-43
2022/04/03 04:22:16;;;;;;;;;;;-0.20;99.90;;;;;;5114111;28;20332;-41
2022/04/03 04:24:42;;;;;;;;;;;-0.20;99.90;;;;;;5114159;28;19912;-41
2022/04/03 04:27:08;;;;;;;;;;;-0.30;99.90;;;;;;5113829;28;19915;-42
2022/04/03 04:29:33;;;;;;;;;;;-0.30;99.90;;;;;;5114053;28;19943;-50
2022/04/03 04:31:59;;;;;;;;;;;-0.30;99.90;;;;;;5113956;28;19919;-42
2022/04/03 04:34:24;;;;;;;;;;;-0.30;99.90;;;;;;5113804;28;19908;-42
2022/04/03 04:36:50;;;;;;;;;;;-0.20;99.90;;;;;;5114065;28;20004;-42
2022/04/03 04:39:15;;;;;;;;;;;-0.20;99.90;;;;;;5113823;28;20247;-43
2022/04/03 04:41:41;;;;;;;;;;;-0.20;99.90;;;;;;5113684;28;20358;-44
2022/04/03 04:44:07;;;;;;;;;;;-0.20;99.90;;;;;;5113997;28;19918;-42
2022/04/03 04:46:32;;;;;;;;;;;-0.20;99.90;;;;;;5117521;28;19912;-47
2022/04/03 04:48:58;;;;;;;;;;;-0.10;99.90;;;;;;5117519;28;20298;-42
2022/04/03 04:51:23;;;;;;;;;;;0.00;99.90;;;;;;5117550;28;19961;-43
2022/04/03 04:53:49;;;;;;;;;;;0.10;99.90;;;;;;5117319;28;19912;-43
2022/04/03 04:56:14;;;;;;;;;;;0.10;99.90;;;;;;5117591;28;19931;-42
2022/04/03 04:58:40;;;;;;;;;;;0.00;99.90;;;;;;5117546;28;20513;-42
2022/04/03 05:01:06;;;;;;;;;;;-0.20;99.90;;;;;;5117298;28;19947;-42
2022/04/03 05:03:31;;;;;;;;;;;-0.30;99.90;;;;;;5117136;28;19954;-42
2022/04/03 05:05:57;;;;;;;;;;;-0.30;99.90;;;;;;5117451;28;19912;-42
2022/04/03 05:08:23;;;;;;;;;;;-0.20;99.90;;;;;;5116029;28;19908;-42
2022/04/03 05:10:49;;;;;;;;;;;-0.20;99.90;;;;;;5117773;28;19908;-42
2022/04/03 05:13:15;;;;;;;;;;;-0.20;99.90;;;;;;5117538;28;19975;-44
2022/04/03 05:15:40;;;;;;;;;;;-0.30;99.90;;;;;;5117329;28;19911;-41
2022/04/03 05:18:06;;;;;;;;;;;-0.40;99.90;;;;;;5116038;28;19908;-42
2022/04/03 05:20:33;;;;;;;;;;;-0.40;99.90;;;;;;5116937;28;19995;-42
2022/04/03 05:22:58;;;;;;;;;;;-0.50;99.90;;;;;;5117184;28;19918;-42
2022/04/03 05:25:24;;;;;;;;;;;-0.50;99.90;;;;;;5117013;28;19911;-42
2022/04/03 05:27:50;;;;;;;;;;;-0.40;99.90;;;;;;5117115;28;19943;-42
2022/04/03 05:30:15;;;;;;;;;;;-0.50;99.90;;;;;;5117003;28;20350;-43
2022/04/03 05:32:41;;;;;;;;;;;-0.40;99.90;;;;;;5116508;28;20373;-43
2022/04/03 05:35:08;;;;;;;;;;;-0.40;99.90;;;;;;5116916;28;19957;-43
2022/04/03 05:37:33;;;;;;;;;;;-0.50;99.90;;;;;;5116945;28;19919;-43
2022/04/03 05:39:59;;;;;;;;;;;-0.50;99.90;;;;;;5115612;28;19907;-43
2022/04/03 05:42:24;;;;;;;;;;;-0.40;99.90;;;;;;5116764;28;20265;-43
2022/04/03 05:44:50;;;;;;;;;;;-0.40;99.90;;;;;;5116674;28;19923;-43
2022/04/03 05:47:18;;;;;;;;;;;-0.40;99.90;;;;;;5116587;28;19908;-44
2022/04/03 05:49:44;;;;;;;;;;;-0.40;99.90;;;;;;5116725;28;19916;-43
2022/04/03 05:52:10;;;;;;;;;;;-0.30;99.90;;;;;;5116814;28;19915;-43
2022/04/03 05:54:35;;;;;;;;;;;-0.30;99.90;;;;;;5116477;28;20282;-43
2022/04/03 05:57:01;;;;;;;;;;;-0.40;99.90;;;;;;5115373;28;19915;-43
2022/04/03 05:59:26;;;;;;;;;;;-0.30;99.90;;;;;;5116703;28;19960;-43
2022/04/03 06:01:52;;;;;;;;;;;-0.30;99.90;;;;;;5116027;28;19912;-42
2022/04/03 06:04:17;;;;;;;;;;;-0.30;99.90;;;;;;5116363;28;19912;-43
2022/04/03 06:06:43;;;;;;;;;;;-0.30;99.90;;;;;;5115871;28;20320;-42
2022/04/03 06:09:08;;;;;;;;;;;-0.20;99.90;;;;;;5116378;28;19953;-41
2022/04/03 06:11:34;;;;;;;;;;;-0.20;99.90;;;;;;5116023;28;19908;-44
2022/04/03 06:14:00;;;;;;;;;;;-0.10;99.90;;;;;;5116080;28;19908;-43
2022/04/03 06:16:26;;;;;;;;;;;-0.10;99.90;;;;;;5115985;28;20374;-43
2022/04/03 06:18:53;;;;;;;;;;;-0.20;99.90;;;;;;5115485;28;19908;-43
2022/04/03 06:21:19;;;;;;;;;;;-0.20;99.90;;;;;;5115552;28;20353;-43
2022/04/03 06:23:44;;;;;;;;;;;0.00;99.90;;;;;;5115894;28;19951;-41
2022/04/03 06:26:10;;;;;;;;;;;0.10;99.90;;;;;;5115835;28;20089;-43
2022/04/03 06:28:35;;;;;;;;;;;0.10;99.90;;;;;;5115340;28;20315;-42
2022/04/03 06:31:01;;;;;;;;;;;0.20;99.90;;;;;;5115130;28;19920;-43
2022/04/03 06:33:27;;;;;;;;;;;0.20;99.90;;;;;;5115212;28;19912;-42
2022/04/03 06:35:53;;;;;;;;;;;0.30;99.90;;;;;;5115555;28;19908;-42
2022/04/03 06:38:18;;;;;;;;;;;0.40;99.90;;;;;;5115487;28;20369;-47
2022/04/03 06:40:47;;;;;;;;;;;0.40;99.90;;;;;;5115582;28;19907;-42
2022/04/03 06:43:12;;;;;;;;;;;0.60;99.90;;;;;;5115181;28;20388;-41
2022/04/03 06:45:38;;;;;;;;;;;0.40;99.90;;;;;;5115456;28;19911;-42
2022/04/03 06:48:04;;;;;;;;;;;0.20;99.90;;;;;;5114867;28;19908;-42
2022/04/03 06:50:30;;;;;;;;;;;0.40;99.90;;;;;;5114970;28;19950;-43
2022/04/03 06:52:55;;;;;;;;;;;0.40;99.90;;;;;;5113561;28;19908;-42
2022/04/03 06:55:21;;;;;;;;;;;0.30;99.90;;;;;;5115169;28;20062;-42
2022/04/03 06:57:46;;;;;;;;;;;0.30;99.90;;;;;;5115227;28;19931;-43
2022/04/03 07:00:13;;;;;;;;;;;0.30;99.90;;;;;;5114964;28;19911;-42
2022/04/03 07:02:38;;;;;;;;;;;0.40;99.90;;;;;;5115090;28;20312;-42
2022/04/03 07:05:04;;;;;;;;;;;0.60;99.90;;;;;;5114734;28;19911;-42
2022/04/03 07:07:30;;;;;;;;;;;0.60;99.90;;;;;;5115272;28;19915;-42
2022/04/03 07:09:55;;;;;;;;;;;0.20;99.90;;;;;;5114967;28;20258;-42
2022/04/03 07:12:21;;;;;;;;;;;-0.10;99.90;;;;;;5114800;28;19916;-43
2022/04/03 07:14:47;;;;;;;;;;;-0.10;99.90;;;;;;5114733;28;20369;-43
2022/04/03 07:17:13;;;;;;;;;;;-0.10;99.90;;;;;;5114873;28;19908;-42
2022/04/03 07:19:39;;;;;;;;;;;0.00;99.90;;;;;;5114550;28;19930;-44
2022/04/03 07:22:04;;;;;;;;;;;0.00;99.90;;;;;;5113461;28;19952;-43
2022/04/03 07:24:30;;;;;;;;;;;0.00;99.90;;;;;;5114625;28;20081;-42
2022/04/03 07:26:55;;;;;;;;;;;0.00;99.90;;;;;;5114427;28;19914;-42
2022/04/03 07:29:21;;;;;;;;;;;0.10;99.90;;;;;;5114523;28;20246;-42
2022/04/03 07:31:47;;;;;;;;;;;0.20;99.90;;;;;;5114241;28;19920;-43
2022/04/03 07:34:12;;;;;;;;;;;0.30;99.90;;;;;;5114525;28;20010;-42
2022/04/03 07:36:38;;;;;;;;;;;0.20;99.90;;;;;;5113281;28;19908;-42
2022/04/03 07:39:04;;;;;;;;;;;0.30;99.90;;;;;;5114495;28;19907;-42
2022/04/03 07:41:29;;;;;;;;;;;0.30;99.90;;;;;;5113263;28;19915;-43
2022/04/03 07:43:55;;;;;;;;;;;0.50;99.90;;;;;;5114489;28;19911;-43
2022/04/03 07:46:20;;;;;;;;;;;0.70;99.90;;;;;;5114176;28;19916;-44
2022/04/03 07:48:46;;;;;;;;;;;1.00;99.90;;;;;;5114409;28;19908;-42
2022/04/03 07:51:12;;;;;;;;;;;1.10;99.90;;;;;;5114400;28;19908;-42
2022/04/03 07:53:38;;;;;;;;;;;1.40;99.90;;;;;;5114392;28;19915;-44
2022/04/03 07:56:05;;;;;;;;;;;1.50;99.90;;;;;;5113723;28;19994;-42
2022/04/03 07:58:34;;;;;;;;;;;1.60;99.90;;;;;;5114036;28;19911;-44
2022/04/03 08:01:00;;;;;;;;;;;1.60;99.90;;;;;;5113882;28;20053;-43
2022/04/03 08:03:26;;;;;;;;;;;1.30;99.90;;;;;;5113993;28;19951;-42
2022/04/03 08:05:53;;;;;;;;;;;1.40;99.90;;;;;;5114109;28;19919;-43
2022/04/03 08:08:18;;;;;;;;;;;1.70;99.90;;;;;;5113831;28;19907;-43
2022/04/03 08:10:44;;;;;;;;;;;1.50;99.90;;;;;;5114273;28;19918;-41
2022/04/03 08:13:09;;;;;;;;;;;1.40;99.90;;;;;;5112836;28;19908;-42
2022/04/03 08:15:35;;;;;;;;;;;1.20;99.90;;;;;;5113643;28;20019;-42
2022/04/03 08:18:00;;;;;;;;;;;0.90;99.90;;;;;;5113891;28;19912;-43
2022/04/03 08:20:26;;;;;;;;;;;1.10;99.90;;;;;;5116301;28;19930;-42
2022/04/03 08:22:51;;;;;;;;;;;1.30;99.90;;;;;;5118058;28;19912;-43
2022/04/03 08:25:18;;;;;;;;;;;1.30;99.90;;;;;;5117948;28;20290;-43
2022/04/03 08:27:43;;;;;;;;;;;1.30;99.90;;;;;;5118131;28;19908;-43
2022/04/03 08:30:13;;;;;;;;;;;1.20;99.90;;;;;;5118014;28;19915;-42
2022/04/03 08:32:39;;;;;;;;;;;1.60;99.90;;;;;;5118189;28;19927;-44
2022/04/03 08:35:04;;;;;;;;;;;2.40;99.90;;;;;;5117575;28;19907;-43
2022/04/03 08:37:30;;;;;;;;;;;2.60;99.90;;;;;;5117742;28;20348;-44
2022/04/03 08:39:55;;;;;;;;;;;3.00;99.90;;;;;;5117786;28;19908;-43
2022/04/03 08:42:21;;;;;;;;;;;3.30;99.90;;;;;;5117596;28;19912;-43
2022/04/03 08:44:46;;;;;;;;;;;3.60;99.90;;;;;;5116440;28;19912;-44
2022/04/03 08:47:13;;;;;;;;;;;4.00;99.90;;;;;;5117205;28;20278;-43
2022/04/03 08:49:40;;;;;;;;;;;3.60;99.90;;;;;;5117789;28;19907;-45
2022/04/03 08:52:07;;;;;;;;;;;3.30;99.90;;;;;;5117735;28;19914;-43
2022/04/03 08:54:33;;;;;;;;;;;2.70;99.90;;;;;;5117429;28;19915;-42
2022/04/03 08:56:59;;;;;;;;;;;2.50;99.90;;;;;;5117274;28;20352;-45
2022/04/03 08:59:24;;;;;;;;;;;2.50;99.90;;;;;;5117067;28;19908;-44
2022/04/03 09:01:50;;;;;;;;;;;1.90;99.90;;;;;;5117013;28;19952;-43
2022/04/03 09:04:17;;;;;;;;;;;2.10;99.90;;;;;;5115561;28;19912;-41
2022/04/03 09:06:55;;;;;;;;;;;2.20;99.90;;;;;;5115919;28;19919;-42
2022/04/03 09:09:22;;;;;;;;;;;2.20;99.90;;;;;;5117386;28;19912;-42
2022/04/03 09:12:05;;;;;;;;;;;2.10;99.90;;;;;;5115888;28;19908;-42
2022/04/03 09:14:30;;;;;;;;;;;2.20;99.90;;;;;;5116650;28;20019;-42
2022/04/03 09:16:56;;;;;;;;;;;1.90;99.90;;;;;;5116522;28;19943;-42
2022/04/03 09:19:31;;;;;;;;;;;1.90;99.90;;;;;;5116767;28;19957;-43
2022/04/03 09:21:56;;;;;;;;;;;2.30;99.90;;;;;;5116700;28;19908;-43
2022/04/03 09:24:22;;;;;;;;;;;2.50;99.90;;;;;;5116649;28;19912;-43
2022/04/03 09:26:56;;;;;;;;;;;2.60;99.90;;;;;;5116624;28;20315;-44
2022/04/03 09:29:22;;;;;;;;;;;3.00;99.90;;;;;;5116403;28;19955;-43
2022/04/03 09:31:47;;;;;;;;;;;2.70;99.90;;;;;;5115283;28;19920;-43
2022/04/03 09:34:17;;;;;;;;;;;2.40;99.90;;;;;;5116720;28;20251;-44
2022/04/03 09:36:42;;;;;;;;;;;2.90;99.90;;;;;;5116691;28;19930;-42
2022/04/03 09:39:10;;;;;;;;;;;3.50;99.90;;;;;;5116745;28;20425;-42
2022/04/03 09:41:59;;;;;;;;;;;3.70;99.90;;;;;;5116765;28;20033;-42
2022/04/03 09:44:44;;;;;;;;;;;3.80;99.90;;;;;;5104353;28;19963;-44
2022/04/03 09:47:09;;;;;;;;;;;4.10;99.90;;;;;;5115366;28;19915;-43
2022/04/03 09:49:35;;;;;;;;;;;3.40;99.90;;;;;;5116484;28;19908;-42
2022/04/03 09:52:00;;;;;;;;;;;3.10;99.90;;;;;;5115123;28;19964;-43
2022/04/03 09:54:26;;;;;;;;;;;2.90;99.90;;;;;;5116282;28;19912;-43
2022/04/03 09:56:51;;;;;;;;;;;2.50;99.90;;;;;;5115869;28;19908;-43
2022/04/03 09:59:17;;;;;;;;;;;2.70;99.90;;;;;;5114824;28;19914;-42
2022/04/03 10:01:42;;;;;;;;;;;2.80;99.90;;;;;;5116098;28;19962;-43
2022/04/03 10:04:13;;;;;;;;;;;3.00;99.90;;;;;;5115973;28;20277;-42
2022/04/03 10:06:40;;;;;;;;;;;3.00;99.90;;;;;;5115891;28;19911;-42
2022/04/03 10:09:11;;;;;;;;;;;2.70;99.90;;;;;;5114688;28;19908;-43
2022/04/03 10:11:37;;;;;;;;;;;2.50;99.90;;;;;;5115763;28;19908;-43
2022/04/03 10:14:03;;;;;;;;;;;2.70;99.90;;;;;;5116027;28;19990;-44
2022/04/03 10:16:29;;;;;;;;;;;3.10;99.90;;;;;;5115871;28;19912;-43
2022/04/03 10:18:56;;;;;;;;;;;3.30;99.90;;;;;;5115616;28;19999;-44
2022/04/03 10:21:28;;;;;;;;;;;3.10;99.90;;;;;;5114296;28;19912;-43
2022/04/03 10:23:58;;;;;;;;;;;3.10;99.90;;;;;;5114064;28;19912;-42
2022/04/03 10:26:24;;;;;;;;;;;2.80;99.90;;;;;;5115595;28;19918;-43
2022/04/03 10:28:52;;;;;;;;;;;2.90;99.90;;;;;;5115354;28;20345;-44
2022/04/03 10:31:17;;;;;;;;;;;2.70;99.90;;;;;;5115365;28;19919;-42
2022/04/03 10:33:48;;;;;;;;;;;2.20;99.90;;;;;;5115172;28;19961;-43
2022/04/03 10:36:14;;;;;;;;;;;2.40;99.90;;;;;;5115612;28;19953;-45
2022/04/03 10:38:44;;;;;;;;;;;2.50;99.90;;;;;;5114098;28;20270;-42
2022/04/03 10:41:40;;;;;;;;;;;2.60;99.90;;;;;;5115151;28;20251;-43
2022/04/03 10:44:19;;;;;;;;;;;2.90;99.90;;;;;;5102103;28;19919;-43
2022/04/03 10:47:03;;;;;;;;;;;2.80;99.90;;;;;;5114045;28;19912;-42
2022/04/03 10:49:40;;;;;;;;;;;2.40;99.90;;;;;;5115253;28;19907;-42
2022/04/03 10:52:07;;;;;;;;;;;2.70;99.90;;;;;;5115285;28;20316;-42
2022/04/03 10:54:41;;;;;;;;;;;2.90;99.90;;;;;;5115212;28;20346;-43
2022/04/03 10:57:25;;;;;;;;;;;3.40;99.90;;;;;;5115575;28;20448;-44
2022/04/03 11:00:09;;;;;;;;;;;3.40;99.90;;;;;;5115172;28;19908;-43
2022/04/03 11:02:34;;;;;;;;;;;3.50;99.90;;;;;;5114686;28;20007;-44
2022/04/03 11:05:20;;;;;;;;;;;3.20;99.90;;;;;;5114482;28;20448;-43
2022/04/03 11:07:45;;;;;;;;;;;3.40;99.90;;;;;;5114718;28;19960;-44
2022/04/03 11:10:11;;;;;;;;;;;3.50;99.90;;;;;;5114832;28;19912;-43
2022/04/03 11:12:44;;;;;;;;;;;2.70;99.90;;;;;;5114807;28;20243;-42
2022/04/03 11:15:12;;;;;;;;;;;2.10;99.90;;;;;;5114339;28;19960;-43
2022/04/03 11:17:48;;;;;;;;;;;2.00;99.90;;;;;;5114425;28;19907;-43
2022/04/03 11:20:30;;;;;;;;;;;2.10;99.90;;;;;;5114321;28;20424;-43
2022/04/03 11:22:57;;;;;;;;;;;2.40;99.90;;;;;;5114462;28;19981;-43
2022/04/03 11:25:22;;;;;;;;;;;3.20;99.90;;;;;;5113125;28;20327;-42
2022/04/03 11:27:48;;;;;;;;;;;4.40;99.90;;;;;;5114847;28;19908;-43
2022/04/03 11:30:14;;;;;;;;;;;5.50;99.90;;;;;;5114222;28;19961;-43
2022/04/03 11:32:40;;;;;;;;;;;5.80;99.90;;;;;;5114532;28;19920;-46
2022/04/03 11:35:05;;;;;;;;;;;5.20;99.90;;;;;;5113993;28;20311;-45
2022/04/03 11:37:31;;;;;;;;;;;4.90;99.90;;;;;;5114618;28;19915;-43
2022/04/03 11:39:57;;;;;;;;;;;4.00;99.90;;;;;;5114331;28;19908;-42
2022/04/03 11:42:23;;;;;;;;;;;3.40;99.90;;;;;;5114095;28;19908;-44
2022/04/03 11:44:53;;;;;;;;;;;3.00;99.90;;;;;;5113984;28;19923;-43
2022/04/03 11:47:19;;;;;;;;;;;2.20;99.90;;;;;;5112344;28;20265;-42
2022/04/03 11:49:45;;;;;;;;;;;2.10;99.90;;;;;;5113920;28;19998;-42
2022/04/03 11:52:10;;;;;;;;;;;1.80;99.90;;;;;;5114138;28;19951;-43
2022/04/03 11:54:37;;;;;;;;;;;1.90;99.90;;;;;;5113498;28;19907;-43
2022/04/03 11:57:03;;;;;;;;;;;2.30;99.90;;;;;;5113790;28;19908;-43
2022/04/03 11:59:32;;;;;;;;;;;2.70;99.90;;;;;;5113823;28;19908;-43
2022/04/03 12:01:57;;;;;;;;;;;3.20;99.90;;;;;;5114367;28;20223;-42
2022/04/03 12:04:23;;;;;;;;;;;3.60;99.90;;;;;;5113147;28;19919;-46
2022/04/03 12:06:57;;;;;;;;;;;4.20;99.90;;;;;;5113722;28;19954;-43
2022/04/03 12:09:23;;;;;;;;;;;3.90;99.90;;;;;;5113523;28;19915;-43
2022/04/03 12:11:51;;;;;;;;;;;3.20;99.90;;;;;;5112107;28;20242;-44
2022/04/03 12:14:23;;;;;;;;;;;3.40;99.90;;;;;;5113435;28;19908;-43
2022/04/03 12:16:53;;;;;;;;;;;3.80;99.90;;;;;;5113447;28;19952;-45
2022/04/03 12:19:20;;;;;;;;;;;3.80;99.90;;;;;;5113713;28;19908;-43
2022/04/03 12:21:51;;;;;;;;;;;4.80;99.90;;;;;;5113713;28;19908;-42
2022/04/03 12:24:17;;;;;;;;;;;5.10;99.90;;;;;;5113518;28;19911;-43
2022/04/03 12:26:44;;;;;;;;;;;3.80;99.90;;;;;;5113536;28;20325;-42
2022/04/03 12:29:10;;;;;;;;;;;3.40;99.90;;;;;;5113834;28;19915;-43
2022/04/03 12:31:35;;;;;;;;;;;3.10;99.90;;;;;;5113660;28;19920;-43
2022/04/03 12:34:08;;;;;;;;;;;3.10;99.90;;;;;;5113514;28;19915;-45
2022/04/03 12:36:38;;;;;;;;;;;3.60;99.90;;;;;;5113055;28;19923;-45
2022/04/03 12:39:03;;;;;;;;;;;3.90;99.90;;;;;;5113437;28;20388;-42
2022/04/03 12:41:29;;;;;;;;;;;4.30;99.90;;;;;;5113243;28;19990;-44
2022/04/03 12:43:59;;;;;;;;;;;4.80;99.90;;;;;;5112207;28;19912;-42
2022/04/03 12:46:35;;;;;;;;;;;5.10;99.90;;;;;;5113358;28;19918;-42
2022/04/03 12:49:00;;;;;;;;;;;4.80;99.80;;;;;;5112526;28;19998;-44
2022/04/03 12:51:26;;;;;;;;;;;4.50;99.90;;;;;;5113885;28;19950;-42
2022/04/03 12:53:51;;;;;;;;;;;3.80;99.90;;;;;;5113022;28;19912;-43
2022/04/03 12:56:17;;;;;;;;;;;3.80;99.90;;;;;;5112027;28;19953;-42
2022/04/03 12:58:49;;;;;;;;;;;3.60;99.90;;;;;;5113390;28;20386;-43
2022/04/03 13:01:15;;;;;;;;;;;3.90;99.90;;;;;;5113390;28;19907;-43
2022/04/03 13:03:44;;;;;;;;;;;4.00;99.90;;;;;;5113504;28;20017;-42
2022/04/03 13:06:26;;;;;;;;;;;3.50;99.90;;;;;;5113779;28;19912;-43
2022/04/03 13:08:58;;;;;;;;;;;3.90;99.90;;;;;;5117287;28;19963;-44
2022/04/03 13:11:40;;;;;;;;;;;4.10;99.90;;;;;;5117067;28;20022;-42
2022/04/03 13:14:12;;;;;;;;;;;3.60;99.90;;;;;;5116684;28;19968;-43
2022/04/03 13:16:38;;;;;;;;;;;3.60;99.90;;;;;;5116876;28;19988;-42
2022/04/03 13:19:04;;;;;;;;;;;3.60;99.90;;;;;;5116971;28;19920;-44
2022/04/03 13:21:33;;;;;;;;;;;3.50;99.90;;;;;;5116884;28;20455;-42
2022/04/03 13:23:58;;;;;;;;;;;3.90;99.90;;;;;;5116245;28;20227;-43
2022/04/03 13:26:24;;;;;;;;;;;3.90;99.90;;;;;;5116689;28;20418;-41
2022/04/03 13:28:49;;;;;;;;;;;4.30;99.90;;;;;;5115607;28;19915;-42
2022/04/03 13:31:15;;;;;;;;;;;4.60;99.90;;;;;;5116432;28;20270;-42
2022/04/03 13:33:41;;;;;;;;;;;4.20;99.90;;;;;;5116697;28;19928;-43
2022/04/03 13:36:06;;;;;;;;;;;3.20;99.90;;;;;;5116573;28;19922;-43
2022/04/03 13:38:31;;;;;;;;;;;3.10;99.90;;;;;;5115098;28;19908;-42
2022/04/03 13:40:57;;;;;;;;;;;3.60;99.90;;;;;;5116428;28;19969;-44
2022/04/03 13:43:22;;;;;;;;;;;3.60;99.90;;;;;;5116654;28;19918;-42
2022/04/03 13:45:57;;;;;;;;;;;4.00;99.90;;;;;;5116350;28;19951;-42
2022/04/03 13:48:26;;;;;;;;;;;4.30;99.90;;;;;;5116464;28;19908;-43
2022/04/03 13:50:53;;;;;;;;;;;4.90;99.90;;;;;;5116006;28;19907;-43
2022/04/03 13:53:19;;;;;;;;;;;4.90;99.90;;;;;;5115136;28;19908;-43
2022/04/03 13:55:45;;;;;;;;;;;4.30;99.90;;;;;;5116222;28;20200;-43
2022/04/03 13:58:10;;;;;;;;;;;4.10;99.90;;;;;;5116077;28;19911;-44
2022/04/03 14:00:36;;;;;;;;;;;4.60;99.90;;;;;;5114639;28;19908;-43
2022/04/03 14:03:02;;;;;;;;;;;4.30;99.90;;;;;;5116241;28;19964;-42
2022/04/03 14:05:27;;;;;;;;;;;4.60;99.90;;;;;;5115821;28;20354;-43
2022/04/03 14:07:53;;;;;;;;;;;4.90;99.90;;;;;;5116264;28;20214;-42
2022/04/03 14:10:18;;;;;;;;;;;3.60;99.90;;;;;;5115758;28;20230;-42
2022/04/03 14:12:44;;;;;;;;;;;3.60;99.90;;;;;;5115640;28;19908;-43
2022/04/03 14:15:10;;;;;;;;;;;4.10;99.90;;;;;;5116019;28;19915;-44
2022/04/03 14:17:35;;;;;;;;;;;3.90;99.90;;;;;;5114736;28;19930;-42
2022/04/03 14:20:02;;;;;;;;;;;4.10;99.90;;;;;;5115871;28;20354;-44
2022/04/03 14:22:28;;;;;;;;;;;3.90;99.90;;;;;;5115634;28;19907;-43
2022/04/03 14:24:53;;;;;;;;;;;4.30;99.90;;;;;;5115451;28;19916;-43